Flight Track Log - Related Links

Times and Time Zones

All times are in EDT time to prevent confusion due to time zone crossing. See the RPA3228 flight status page for this flight to view local times or setup timezone preferences in your user account.

Time Position Orientation Groundspeed Altitude Reporting Facility
EDT Latitude Longitude Course Direction KTS MPH feet Rate Location/Type
Sat 07:42:31 AM 36.1333 -86.6833 56° Northeast 157 181 1,300  Level Nashville TRACON
Sat 07:43:25 AM 36.1667 -86.7333 310° West 201 231 3,300 2,526 Climbing Nashville TRACON
Sat 07:44:25 AM 36.1833 -86.6667 73° East 286 329 6,100 3,333 Climbing Nashville TRACON
Sat 07:45:00 AM 36.2921 -86.1734 68° East  Level Estimated
Sat 07:45:58 AM 36.1892 -86.5278 87° East 298 343 11,800  Level Memphis Center
Sat 07:46:00 AM 36.3336 -86.0469 50° Northeast  Level Estimated
Sat 07:46:58 AM 36.1900 -86.4225 89° East 306 352 15,000  Level Memphis Center
Sat 07:47:00 AM 36.3751 -85.9203 56° Northeast  Level Estimated
Sat 07:47:58 AM 36.1944 -86.3039 87° East 306 352 17,900  Level Memphis Center
Sat 07:48:58 AM 36.1967 -86.1856 89° East 320 368 20,700 2,750 Climbing Memphis Center
Sat 07:49:58 AM 36.2053 -86.0642 85° East 336 387 23,400 2,600 Climbing Memphis Center
Sat 07:50:58 AM 36.2514 -85.9561 62° Northeast 347 399 25,900 2,225 Climbing Memphis Center
Sat 07:52:29 AM 36.3278 -85.7856 61° Northeast 381 438 29,000 2,211 Climbing Indianapolis Center
Sat 07:53:30 AM 36.3819 -85.6733 59° Northeast 379 436 31,500 2,361 Climbing Indianapolis Center
Sat 07:54:31 AM 36.4344 -85.5639 59° Northeast 370 426 33,800 1,721 Climbing Indianapolis Center
Sat 07:55:32 AM 36.4839 -85.4567 60° Northeast 359 413 35,000 590 Climbing Indianapolis Center
Sat 07:56:33 AM 36.5361 -85.3456 60° Northeast 368 423 35,000  Level Indianapolis Center
Sat 07:57:33 AM 36.5889 -85.2344 59° Northeast 371 427 35,000  Level Indianapolis Center
Sat 07:58:34 AM 36.6347 -85.1186 64° Northeast 372 428 35,000  Level Indianapolis Center
Sat 07:59:35 AM 36.6708 -84.9964 70° East 373 429 35,000  Level Indianapolis Center
Sat 08:00:36 AM 36.7072 -84.8742 70° East 374 430 35,000  Level Indianapolis Center
Sat 08:01:37 AM 36.7456 -84.7525 69° East 375 432 35,000  Level Indianapolis Center
Sat 08:02:38 AM 36.7811 -84.6283 70° East 378 435 35,000  Level Indianapolis Center
Sat 08:03:39 AM 36.8189 -84.5069 69° East 373 429 35,000  Level Indianapolis Center
Sat 08:04:40 AM 36.8556 -84.3839 70° East 377 434 35,000  Level Indianapolis Center
Sat 08:05:41 AM 36.8989 -84.2431 69° East 372 428 35,000  Level Indianapolis Center
Sat 08:06:42 AM 36.9353 -84.1208 70° East 374 430 35,000  Level Indianapolis Center
Sat 08:07:43 AM 36.9703 -83.9986 70° East 373 429 35,000  Level Indianapolis Center
Sat 08:08:43 AM 37.0083 -83.8764 69° East 375 432 35,000  Level Indianapolis Center
Sat 08:09:44 AM 37.0456 -83.7525 69° East 381 438 35,000  Level Indianapolis Center
Sat 08:10:45 AM 37.0808 -83.6289 70° East 379 436 35,000  Level Indianapolis Center
Sat 08:11:46 AM 37.1178 -83.5061 69° East 378 435 35,000  Level Indianapolis Center
Sat 08:12:47 AM 37.1536 -83.3828 70° East 377 434 35,000  Level Indianapolis Center
Sat 08:13:48 AM 37.1897 -83.2569 70° East 381 438 35,000  Level Indianapolis Center
Sat 08:14:49 AM 37.2256 -83.1317 70° East 379 436 35,000  Level Indianapolis Center
Sat 08:15:50 AM 37.2619 -83.0058 70° East 380 437 35,000  Level Indianapolis Center
Sat 08:16:51 AM 37.2978 -82.8789 70° East 382 440 35,000  Level Indianapolis Center
Sat 08:17:52 AM 37.3347 -82.7517 70° East 385 443 35,000  Level Indianapolis Center
Sat 08:18:53 AM 37.3700 -82.6253 71° East 383 441 35,000  Level Indianapolis Center
Sat 08:19:54 AM 37.4053 -82.4989 71° East 382 440 35,000  Level Indianapolis Center
Sat 08:20:55 AM 37.4400 -82.3736 71° East 379 436 35,000  Level Indianapolis Center
Sat 08:21:56 AM 37.4944 -82.2631 58° Northeast 373 429 35,000  Level Indianapolis Center
Sat 08:22:57 AM 37.5867 -82.2089 25° Northeast 363 418 35,000  Level Indianapolis Center
Sat 08:23:58 AM 37.6953 -82.1475 24° Northeast 365 420 35,000  Level Indianapolis Center
Sat 08:24:59 AM 37.7847 -82.0914 26° Northeast 362 417 35,000  Level Indianapolis Center
Sat 08:26:00 AM 37.8131 -81.9692 74° East 377 434 35,000  Level Indianapolis Center
Sat 08:27:02 AM 37.8081 -81.8353 93° East 379 436 35,000  Level Indianapolis Center
Sat 08:28:03 AM 37.8033 -81.7011 93° East 381 438 35,000  Level Indianapolis Center
Sat 08:29:04 AM 37.7975 -81.5658 93° East 384 442 35,000  Level Indianapolis Center
Sat 08:30:05 AM 37.7931 -81.4300 92° East 381 438 35,000  Level Indianapolis Center
Sat 08:31:06 AM 37.7872 -81.2992 93° East 384 442 35,000  Level Indianapolis Center
Sat 08:32:07 AM 37.7814 -81.1675 93° East 384 442 35,000  Level Indianapolis Center
Sat 08:33:08 AM 37.8158 -81.0231 73° East 373 429 35,000  Level Indianapolis Center
Sat 08:34:09 AM 37.8581 -80.9072 65° Northeast 371 427 35,000  Level Indianapolis Center
Sat 08:35:10 AM 37.8986 -80.7897 66° East 366 421 35,000  Level Indianapolis Center
Sat 08:36:12 AM 37.9392 -80.6714 66° East 366 421 35,000  Level Indianapolis Center
Sat 08:36:54 AM 37.9733 -80.5864 63° Northeast 365 420 35,000  Level Washington Center
Sat 08:37:55 AM 38.0158 -80.4681 65° Northeast 365 420 35,000  Level Washington Center
Sat 08:38:54 AM 38.0514 -80.3622 67° East 365 420 35,000  Level Washington Center
Sat 08:39:56 AM 38.0956 -80.2464 64° Northeast 365 420 35,000  Level Washington Center
Sat 08:40:53 AM 38.1356 -80.1272 67° East 365 420 35,000  Level Washington Center
Sat 08:41:54 AM 38.1775 -80.0108 65° Northeast 365 420 35,000  Level Washington Center
Sat 08:42:55 AM 38.2219 -79.8789 67° East 365 420 35,000  Level Washington Center
Sat 08:43:56 AM 38.2656 -79.7622 65° Northeast 371 427 35,000  Level Washington Center
Sat 08:44:53 AM 38.3072 -79.6428 66° East 371 427 35,000  Level Washington Center
Sat 08:45:54 AM 38.3486 -79.5233 66° East 371 427 35,000 -595 Level Washington Center
Sat 08:46:54 AM 38.3881 -79.4061 67° East 371 427 33,800 -1,550 Descending Washington Center
Sat 08:47:54 AM 38.4228 -79.2967 68° East 366 421 31,900 -1,950 Descending Washington Center
Sat 08:48:54 AM 38.4497 -79.1603 76° East 371 427 29,900 -2,033 Descending Washington Center
Sat 08:49:55 AM 38.4747 -79.0208 77° East 385 443 27,800 -1,869 Descending Washington Center
Sat 08:50:56 AM 38.4978 -78.8628 79° East 402 463 26,100 -1,932 Descending Washington Center
Sat 08:51:53 AM 38.5203 -78.7231 78° East 411 473 24,000 -1,815 Descending Washington Center
Sat 08:52:55 AM 38.5403 -78.5992 78° East 406 467 22,500 -1,240 Descending Washington Center
Sat 08:53:54 AM 38.5622 -78.4592 79° East 401 461 21,500 -1,140 Descending Washington Center
Sat 08:54:56 AM 38.5842 -78.3247 78° East 396 456 20,200 -1,500 Descending Washington Center
Sat 08:55:54 AM 38.6142 -78.1956 73° East 386 444 18,500 -1,678 Descending Washington Center
Sat 08:56:54 AM 38.6522 -78.0747 68° East 372 428 16,900 -1,700 Descending Washington Center
Sat 08:57:54 AM 38.6900 -77.9589 67° East 361 415 15,100 -1,884 Descending Washington Center
Sat 08:58:55 AM 38.7297 -77.8403 67° East 337 388 13,100 -1,623 Descending Washington Center
Sat 08:59:56 AM 38.7833 -77.7567 51° Northeast 314 361 11,800 -1,210 Descending Washington Center
Sat 09:00:54 AM 38.8328 -77.6728 53° Northeast 301 346 10,700 -1,210 Descending Washington Center
Sat 09:01:55 AM 38.8678 -77.5753 65° Northeast 290 334 9,400 -1,131 Descending Washington Center
Sat 09:02:56 AM 38.9006 -77.4800 66° East 285 328 8,400 -1,237 Descending Washington Center
Sat 09:04:06 AM 38.8667 -77.3667 111° Southeast 290 334 6,700 -1,161 Descending Potomac TRACON
Sat 09:05:00 AM 38.8500 -77.2833 104° East 241 277 6,000 -368 Descending Potomac TRACON
Sat 09:06:00 AM 38.8167 -77.2167 123° Southeast 212 244 6,000  Level Potomac TRACON
Sat 09:06:54 AM 38.7833 -77.1667 131° Southeast 214 246 6,000  Level Potomac TRACON
Sat 09:07:48 AM 38.7500 -77.1167 131° Southeast 221 254 6,000  Level Potomac TRACON
Sat 09:08:48 AM 38.7000 -77.1167 180° South 212 244 6,000  Level Potomac TRACON
Sat 09:09:42 AM 38.6500 -77.1000 165° South 215 247 6,000  Level Potomac TRACON
Sat 09:10:42 AM 38.5833 -77.1000 180° South 218 251 6,000 -550 Level Potomac TRACON
Sat 09:11:42 AM 38.5833 -77.0333 90° East 194 223 4,900 -1,250 Descending Potomac TRACON
Sat 09:12:42 AM 38.6500 -77.0167 11° North 179 206 3,500 -1,400 Descending Potomac TRACON
Sat 09:13:42 AM 38.7000 -77.0167 360° North 183 211 2,100 -950 Descending Potomac TRACON
Sat 09:14:42 AM 38.7500 -77.0333 345° North 181 208 1,600 -500 Descending Potomac TRACON
Sat 09:15:42 AM 38.7833 -77.0333 360° North 162 186 1,100 -600 Descending Potomac TRACON
Sat 09:16:42 AM 38.8333 -77.0333 360° North 123 142 400 -700 Descending Potomac TRACON

Login

Don't have an account? Register now (free) for customized features, flight alerts, and more!